Terminal Aerodrome Forecast
Issued by NWS Midland/Odessa, TX

Home | Current Version | Previous Version | Text Only | Print | Product List | Glossary On
Versions: 1 2 3 4 5 6 7 8 9 10 11 12 13 14 15 16 17 18 19 20 21 22 23 24 25 26 27 28 29 30 31 32 33 34 35 36 37 38 39
000
FTUS44 KMAF 311300 AAA
TAFMAF
TAF AMD
KMAF 311344Z 3114/0112 02011KT P6SM OVC035
      TEMPO 3114/3116 BKN025
     FM311600 03011KT P6SM SCT040 BKN130=

USA.gov is the U.S. government's official web portal to all federal, state and local government web resources and services.